LSZC Airport Information

Runway Information
Runway 07L Length 6561 ft width 130 ft
Elevation 1475 ft Threshold 200 ft Heading 62
Runway 25R Length 6561 ft Width 130 ft
Elevation 1435 ft Threshold 200 ft Heading 242
Runway 07R Length 4921 ft width 130 ft
Elevation 1475 ft Threshold 0 ft Heading 62
Runway 25L Length 4921 ft Width 130 ft
Elevation 1445 ft Threshold 0 ft Heading 242
Airport Frequencies
Type Air to Air Name INFO Frequency 134.125 MHZ
Type ARR ALPNAC Name Alpnach To Frequency 128.475 MHZ
Type ARR EMMEN Name Emmen Towe Frequency 120.425 MHZ
Type FIS Name Zurich Inf Frequency 124.7 MHZ
Type GCA Name ARR/DEP Frequency 140.65 MHZ
Type TWR Name TWR Frequency 119.625 MHZ
Airport Navaids
Airport Weather Information & NOTAM
ADDS - METARS form results

(1531 UTC 18 October 2018)
Data provider http://aviationweather.gov/metar/data/
 
METAR text: LSZC 181520Z 05004KT 7000 NSC 16/12 Q1018
Conditions at: LSZC (BUOCHS , CH) observed 1520 UTC 18 October 2018
Temperature: 16.0°C (61°F)
Dewpoint: 12.0°C (54°F) [RH = 77%]
Pressure (altimeter): 30.06 inches Hg (1018.0 mb)
Winds: from the NE (50 degrees) at 5 MPH (4 knots; 2.1 m/s)
Visibility: 4 miles ( 7 km)
Ceiling: at least 12,000 feet AGL
Clouds: sky clear below 12,000 feet AGL
Weather: no significant weather observed at this time

METAR text: LSZC 181450Z VRB02KT 7000 NSC 17/12 Q1018
Conditions at: LSZC (BUOCHS , CH) observed 1450 UTC 18 October 2018
Temperature: 17.0°C (63°F)
Dewpoint: 12.0°C (54°F) [RH = 72%]
Pressure (altimeter): 30.06 inches Hg (1018.0 mb)
Winds: variable direction winds at 2 MPH (2 knots; 1.0 m/s)
Visibility: 4 miles ( 7 km)
Ceiling: at least 12,000 feet AGL
Clouds: sky clear below 12,000 feet AGL
Weather: no significant weather observed at this time

Forecast for: LSZC (BUOCHS , CH)
Text: TAF LSZC 181425Z 1815/1824 VRB02KT 7000 NSC
Forecast period: 1500 to 1800 UTC 18 October 2018
Forecast type: FROM: standard forecast or significant change
Winds: variable direction winds at 2 MPH (2 knots; 1.0 m/s)
Visibility: 4 miles (7 km)
Ceiling: unknown
Clouds: missing
Weather: no significant weather forecast for this period
Text: BECMG 1818/1822 4500 BR
Forecast period: 1800 UTC 18 October 2018 to 0000 UTC 19 October 2018
Forecast type: BECOMING: Conditions expected to become as follows by 2200 UTC 18 October 2018
Winds: variable direction winds at 2 MPH (2 knots; 1.0 m/s)
Visibility: 2.80 miles (4.51 km)
Ceiling: unknown
Clouds: missing
Weather: BR  (mist)
Text: PROB40 1820/1824 2500 BCFG
Forecast period: 2000 UTC 18 October 2018 to 0000 UTC 19 October 2018
Forecast type: PROBABLE: 40 percent likelihood of the following during this time
Visibility: 1.55 miles (2.49 km)
Ceiling: unknown
Clouds: missing
Weather: BCFG  (patches of fog)